Time;durP1;ratioP1;P1;durP2;ratioP2;P2;SDS_P1;SDS_P2;PMS_P1;PMS_P2;Temp;Humidity;BMP_temperature;BMP_pressure;BME280_temperature;BME280_humidity;BME280_pressure;Samples;Min_cycle;Max_cycle;Signal;HPM_P1;HPM_P2
2022/11/03 00:02:07;;;;;;;18.50;8.18;;;11.50;99.90;;;;;;6167113;23;20020;-79
2022/11/03 00:04:35;;;;;;;16.45;8.43;;;11.40;99.90;;;;;;6192406;23;20013;-79
2022/11/03 00:07:02;;;;;;;15.60;8.20;;;13.10;99.90;;;;;;6190072;23;20451;-79
2022/11/03 00:09:31;;;;;;;15.73;7.82;;;11.70;99.90;;;;;;6162924;23;20082;-79
2022/11/03 00:11:58;;;;;;;18.65;8.43;;;10.80;99.90;;;;;;6215368;23;20013;-79
2022/11/03 00:14:26;;;;;;;16.98;8.27;;;11.50;99.90;;;;;;6189627;23;20025;-79
2022/11/03 00:16:54;;;;;;;18.35;8.88;;;11.40;99.90;;;;;;6191514;23;20021;-79
2022/11/03 00:19:21;;;;;;;16.58;7.90;;;11.50;99.90;;;;;;6161234;23;20020;-79
2022/11/03 00:21:48;;;;;;;19.10;8.50;;;11.40;99.90;;;;;;6188058;23;20040;-79
2022/11/03 00:24:16;;;;;;;18.60;8.27;;;11.40;99.90;;;;;;6164935;23;20080;-79
2022/11/03 00:26:43;;;;;;;17.02;8.13;;;11.20;99.90;;;;;;6220430;23;20067;-79
2022/11/03 00:29:14;;;;;;;17.80;8.10;;;9.90;99.90;;;;;;6166334;23;20035;-79
2022/11/03 00:31:43;;;;;;;12.20;6.75;;;11.70;99.90;;;;;;6167694;23;20059;-79
2022/11/03 00:34:11;;;;;;;15.70;7.05;;;11.30;99.90;;;;;;6164800;23;20051;-79
2022/11/03 00:36:41;;;;;;;13.77;7.03;;;11.50;99.90;;;;;;6164615;23;20016;-79
2022/11/03 00:39:10;;;;;;;10.25;6.15;;;11.20;99.90;;;;;;6188548;23;20104;-79
2022/11/03 00:41:37;;;;;;;12.55;6.53;;;11.20;99.90;;;;;;6166180;23;20020;-79
2022/11/03 00:44:05;;;;;;;13.30;6.78;;;11.20;99.90;;;;;;6191830;23;20020;-79
2022/11/03 00:46:34;;;;;;;10.00;5.85;;;11.20;99.90;;;;;;6190244;23;20439;-79
2022/11/03 00:49:03;;;;;;;12.98;6.43;;;11.20;99.90;;;;;;6189274;23;20021;-79
2022/11/03 00:51:32;;;;;;;11.68;5.88;;;11.10;99.90;;;;;;6166115;23;20344;-79
2022/11/03 00:54:02;;;;;;;11.35;6.28;;;11.20;99.90;;;;;;6193333;23;20027;-79
2022/11/03 00:56:32;;;;;;;11.93;6.40;;;11.20;99.90;;;;;;6194216;23;20032;-79
2022/11/03 00:59:01;;;;;;;14.52;6.97;;;11.20;99.90;;;;;;6168919;23;20047;-79
2022/11/03 01:01:34;;;;;;;14.38;6.22;;;11.10;99.90;;;;;;6192939;23;20052;-79
2022/11/03 01:06:58;;;;;;;11.55;6.03;;;11.10;99.90;;;;;;6188279;23;20024;-79
2022/11/03 01:09:28;;;;;;;13.85;6.95;;;9.80;99.90;;;;;;6190740;23;20440;-79
2022/11/03 01:11:58;;;;;;;12.82;6.38;;;11.10;99.90;;;;;;6188351;23;20020;-79
2022/11/03 01:14:30;;;;;;;15.95;7.32;;;11.10;99.90;;;;;;6214044;23;20024;-79
2022/11/03 01:16:57;;;;;;;13.65;6.78;;;12.10;99.90;;;;;;6156370;23;20056;-79
2022/11/03 01:19:25;;;;;;;13.38;7.00;;;11.00;99.90;;;;;;6187254;23;20016;-79
2022/11/03 01:21:53;;;;;;;13.63;6.93;;;10.50;99.90;;;;;;6214410;23;20120;-79
2022/11/03 01:24:21;;;;;;;15.52;6.50;;;11.10;99.90;;;;;;6187664;23;20013;-79
2022/11/03 01:26:49;;;;;;;13.68;6.57;;;11.10;99.90;;;;;;6215878;23;20039;-79
2022/11/03 01:29:16;;;;;;;13.30;6.82;;;11.30;99.90;;;;;;6190851;23;20036;-79
2022/11/03 01:31:44;;;;;;;15.50;6.80;;;11.00;99.90;;;;;;6190409;23;20359;-79
2022/11/03 01:34:17;;;;;;;16.42;7.45;;;11.30;99.90;;;;;;6190075;23;20024;-79
2022/11/03 01:36:45;;;;;;;13.88;7.70;;;10.90;99.90;;;;;;6190296;23;20396;-79
2022/11/03 01:39:15;;;;;;;14.00;7.40;;;11.00;99.90;;;;;;6189299;23;20020;-79
2022/11/03 01:41:46;;;;;;;14.23;7.28;;;10.90;99.90;;;;;;6189898;23;20025;-79
2022/11/03 01:44:13;;;;;;;15.43;6.75;;;10.00;99.90;;;;;;6165048;23;20043;-79
2022/11/03 01:46:48;;;;;;;18.25;7.25;;;10.70;99.90;;;;;;6187210;23;20017;-79
2022/11/03 01:49:28;;;;;;;15.15;7.45;;;11.20;99.90;;;;;;6163081;23;20662;-79
2022/11/03 01:52:02;;;;;;;17.27;8.48;;;10.60;99.90;;;;;;6190670;23;20016;-79
2022/11/03 01:54:30;;;;;;;20.52;8.52;;;10.70;99.90;;;;;;6162774;23;20017;-79
2022/11/03 01:56:59;;;;;;;17.08;7.90;;;10.60;99.90;;;;;;6216112;23;20036;-79
2022/11/03 01:59:27;;;;;;;17.60;7.50;;;9.10;99.90;;;;;;6193813;23;20100;-79
2022/11/03 02:01:55;;;;;;;15.25;7.72;;;10.60;99.90;;;;;;6191328;23;20008;-79
2022/11/03 02:04:27;;;;;;;18.75;7.30;;;11.20;99.90;;;;;;6188978;23;20412;-79
2022/11/03 02:07:12;;;;;;;19.48;7.90;;;10.60;99.90;;;;;;6190031;23;20080;-79
2022/11/03 02:09:45;;;;;;;18.55;9.43;;;10.70;99.90;;;;;;6165281;23;20478;-79
2022/11/03 02:12:13;;;;;;;18.20;8.00;;;10.40;99.90;;;;;;6188737;23;20027;-79
2022/11/03 02:14:58;;;;;;;15.32;8.00;;;10.50;99.90;;;;;;6187985;23;20030;-79
2022/11/03 02:17:28;;;;;;;16.80;8.18;;;9.90;99.90;;;;;;6162737;23;20032;-79
2022/11/03 02:20:04;;;;;;;21.88;8.55;;;10.30;99.90;;;;;;6187093;23;20059;-79
2022/11/03 02:22:55;;;;;;;17.05;8.63;;;10.30;99.90;;;;;;6187121;23;20119;-79
2022/11/03 02:25:38;;;;;;;29.58;9.68;;;10.20;99.90;;;;;;6163163;23;20052;-79
2022/11/03 02:28:06;;;;;;;17.77;8.73;;;11.50;99.90;;;;;;6163013;23;20024;-79
2022/11/03 02:30:41;;;;;;;20.15;9.00;;;10.10;99.90;;;;;;6217220;23;20031;-78
2022/11/03 02:33:30;;;;;;;18.58;8.52;;;10.10;99.90;;;;;;6190069;23;20028;-79
2022/11/03 02:36:23;;;;;;;22.27;9.85;;;10.10;99.90;;;;;;6188907;23;20395;-79
2022/11/03 02:39:10;;;;;;;20.98;8.50;;;11.20;99.90;;;;;;6155417;23;20024;-79
2022/11/03 02:41:39;;;;;;;18.88;9.25;;;10.00;99.90;;;;;;6187587;23;20021;-79
2022/11/03 02:44:13;;;;;;;22.27;8.77;;;10.10;99.90;;;;;;6189159;23;20031;-79
2022/11/03 02:46:43;;;;;;;16.02;8.85;;;10.00;99.90;;;;;;6216142;23;20017;-79
2022/11/03 02:49:11;;;;;;;20.77;9.13;;;9.90;99.90;;;;;;6188122;23;20367;-79
2022/11/03 02:51:39;;;;;;;17.67;8.50;;;10.00;99.90;;;;;;6163658;23;20024;-79
2022/11/03 02:54:24;;;;;;;19.48;9.30;;;9.50;99.90;;;;;;6191002;23;20025;-78
2022/11/03 02:56:58;;;;;;;23.42;10.35;;;9.90;99.90;;;;;;6189832;23;20016;-78
2022/11/03 02:59:31;;;;;;;19.77;8.70;;;9.90;99.90;;;;;;6188504;23;20031;-78
2022/11/03 03:02:06;;;;;;;20.92;9.75;;;10.00;99.90;;;;;;6163601;23;20029;-78
2022/11/03 03:04:39;;;;;;;17.38;8.38;;;9.90;99.90;;;;;;6166078;23;20360;-78
2022/11/03 03:07:14;;;;;;;20.10;9.30;;;9.80;99.90;;;;;;6215963;23;20016;-79
2022/11/03 03:10:02;;;;;;;23.17;9.07;;;9.20;99.90;;;;;;6189058;23;20108;-78
2022/11/03 03:12:33;;;;;;;21.80;9.65;;;9.90;99.90;;;;;;6188976;23;20020;-78
2022/11/03 03:15:03;;;;;;;21.23;9.45;;;9.60;99.90;;;;;;6190125;23;20517;-78
2022/11/03 03:17:53;;;;;;;21.42;9.23;;;9.60;99.90;;;;;;6190239;23;20040;-78
2022/11/03 03:20:50;;;;;;;22.00;9.68;;;10.00;99.90;;;;;;6163010;23;20017;-78
2022/11/03 03:23:22;;;;;;;24.02;10.90;;;8.60;99.90;;;;;;6167570;23;20024;-78
2022/11/03 03:26:00;;;;;;;24.55;11.02;;;9.40;99.90;;;;;;6191313;23;20076;-78
2022/11/03 03:29:10;;;;;;;21.02;9.25;;;9.30;99.90;;;;;;6190189;23;20013;-78
2022/11/03 03:31:42;;;;;;;17.83;9.25;;;8.60;99.90;;;;;;6154849;23;20440;-78
2022/11/03 03:34:11;;;;;;;22.13;10.10;;;9.40;99.90;;;;;;6187356;23;20028;-78
2022/11/03 03:37:00;;;;;;;20.10;9.75;;;9.40;99.90;;;;;;6186240;23;20032;-79
2022/11/03 03:39:33;;;;;;;21.60;9.57;;;9.50;99.90;;;;;;6186798;23;20077;-79
2022/11/03 03:42:02;;;;;;;19.98;9.60;;;9.30;99.90;;;;;;6187057;23;20047;-79
2022/11/03 03:44:31;;;;;;;20.80;9.55;;;9.30;99.90;;;;;;6189033;23;20103;-79
2022/11/03 03:47:15;;;;;;;21.48;9.57;;;9.50;99.90;;;;;;6187339;23;20017;-79
2022/11/03 03:49:43;;;;;;;20.40;9.87;;;9.20;99.90;;;;;;6188578;23;20040;-79
2022/11/03 03:52:11;;;;;;;21.02;9.55;;;9.20;99.90;;;;;;6187542;23;20056;-79
2022/11/03 03:54:38;;;;;;;20.63;9.75;;;9.20;99.90;;;;;;6162870;23;20025;-79
2022/11/03 03:57:11;;;;;;;20.63;9.57;;;9.10;99.90;;;;;;6186658;23;20023;-78
2022/11/03 03:59:39;;;;;;;19.88;9.40;;;9.10;99.90;;;;;;6163058;23;20456;-78
2022/11/03 04:02:06;;;;;;;19.15;9.63;;;8.10;99.90;;;;;;6187865;23;20051;-78
2022/11/03 04:04:34;;;;;;;19.27;9.10;;;8.30;99.90;;;;;;6187645;23;20016;-78
2022/11/03 04:09:48;;;;;;;22.75;10.35;;;9.00;99.90;;;;;;6188426;23;20451;-78
2022/11/03 04:23:20;;;;;;;23.58;10.95;;;8.80;99.90;;;;;;6212822;23;20047;-78
2022/11/03 04:25:51;;;;;;;23.40;10.82;;;8.80;99.90;;;;;;6188212;23;20044;-78
2022/11/03 04:28:19;;;;;;;20.73;9.85;;;9.20;99.90;;;;;;6186988;23;20028;-78
2022/11/03 04:30:47;;;;;;;21.92;10.05;;;8.70;99.90;;;;;;6189226;23;20321;-78
2022/11/03 04:33:17;;;;;;;18.55;9.02;;;8.70;99.90;;;;;;6188177;23;20021;-78
2022/11/03 04:35:46;;;;;;;23.52;10.38;;;8.50;99.90;;;;;;6189309;23;20023;-78
2022/11/03 04:38:13;;;;;;;25.27;11.65;;;8.60;99.90;;;;;;6186480;23;20031;-78
2022/11/03 04:40:43;;;;;;;21.67;10.88;;;8.60;99.90;;;;;;6213318;23;20017;-78
2022/11/03 04:43:17;;;;;;;21.55;10.30;;;8.70;99.90;;;;;;6189710;23;20017;-78
2022/11/03 04:45:46;;;;;;;22.70;9.80;;;8.60;99.90;;;;;;6162833;23;20108;-78
2022/11/03 04:48:23;;;;;;;22.38;9.32;;;8.50;99.90;;;;;;6189444;23;20012;-78
2022/11/03 04:50:57;;;;;;;23.30;11.45;;;8.60;99.90;;;;;;6188797;23;20103;-78
2022/11/03 04:53:29;;;;;;;21.50;9.77;;;8.60;99.90;;;;;;6185807;23;20490;-78
2022/11/03 04:55:57;;;;;;;23.20;9.73;;;8.60;99.90;;;;;;6188869;23;20024;-78
2022/11/03 04:58:34;;;;;;;20.80;10.05;;;8.60;99.90;;;;;;6165028;23;20020;-78
2022/11/03 05:01:02;;;;;;;20.42;9.30;;;8.60;99.90;;;;;;6187238;23;20567;-78
2022/11/03 05:03:33;;;;;;;24.45;9.88;;;8.50;99.90;;;;;;6191502;23;20036;-78
2022/11/03 05:06:14;;;;;;;24.35;12.23;;;8.50;99.90;;;;;;6188947;23;20070;-78
2022/11/03 05:08:45;;;;;;;21.75;12.02;;;8.50;99.90;;;;;;6164742;23;20456;-78
2022/11/03 05:11:23;;;;;;;22.33;11.10;;;8.60;99.90;;;;;;6189407;23;20077;-78
2022/11/03 05:13:51;;;;;;;19.67;10.32;;;8.50;99.90;;;;;;6190022;23;20052;-79
2022/11/03 05:16:19;;;;;;;22.80;10.23;;;8.50;99.90;;;;;;6184262;23;20506;-79
2022/11/03 05:18:49;;;;;;;17.02;8.60;;;8.50;99.90;;;;;;6184992;23;20023;-79
2022/11/03 05:21:20;;;;;;;19.45;8.20;;;8.60;99.90;;;;;;6165980;23;20043;-79
2022/11/03 05:24:00;;;;;;;14.23;6.45;;;8.20;99.90;;;;;;6162933;23;20039;-79
2022/11/03 05:26:34;;;;;;;13.05;5.57;;;8.50;99.90;;;;;;6187677;23;20112;-79
2022/11/03 05:29:18;;;;;;;12.70;6.40;;;8.60;99.90;;;;;;6162787;23;20021;-79
2022/11/03 05:31:48;;;;;;;11.85;6.18;;;8.60;99.90;;;;;;6215018;23;20111;-78
2022/11/03 05:34:41;;;;;;;12.25;5.00;;;7.70;99.90;;;;;;6164342;23;20535;-78
2022/11/03 05:37:19;;;;;;;10.40;4.93;;;8.60;99.90;;;;;;6186465;23;20329;-78
2022/11/03 05:39:54;;;;;;;13.10;5.20;;;8.60;99.90;;;;;;6163082;23;20444;-78
2022/11/03 05:42:21;;;;;;;13.00;5.68;;;8.60;99.90;;;;;;6187322;23;20028;-78
2022/11/03 05:44:50;;;;;;;10.80;4.82;;;8.60;99.90;;;;;;6212632;23;20108;-78
2022/11/03 05:47:31;;;;;;;14.75;5.18;;;8.40;99.90;;;;;;6189216;23;20107;-78
2022/11/03 05:50:20;;;;;;;15.43;5.40;;;8.50;99.90;;;;;;6161074;23;20020;-78
2022/11/03 05:52:52;;;;;;;12.55;6.35;;;8.40;99.90;;;;;;6162160;23;20025;-78
2022/11/03 05:55:28;;;;;;;16.30;6.45;;;8.60;99.90;;;;;;6213434;23;20075;-78
2022/11/03 05:58:14;;;;;;;15.85;6.55;;;8.60;99.90;;;;;;6188321;23;20013;-78
2022/11/03 06:00:42;;;;;;;15.48;7.00;;;8.60;99.90;;;;;;6185411;23;20073;-78
2022/11/03 06:03:24;;;;;;;15.88;8.10;;;8.60;99.90;;;;;;6163437;23;20409;-78
2022/11/03 06:05:52;;;;;;;22.52;8.20;;;8.60;99.90;;;;;;6188543;23;20036;-78
2022/11/03 06:08:29;;;;;;;23.58;9.57;;;8.60;99.90;;;;;;6174368;23;20026;-79
2022/11/03 06:11:00;;;;;;;17.33;7.45;;;8.60;99.90;;;;;;6162122;23;20059;-77
2022/11/03 06:13:37;;;;;;;17.35;7.38;;;8.10;99.90;;;;;;6186596;23;20048;-77
2022/11/03 06:16:23;;;;;;;14.65;7.70;;;8.60;99.90;;;;;;6163685;23;20116;-77
2022/11/03 06:18:51;;;;;;;19.05;9.35;;;8.70;99.90;;;;;;6188749;23;20087;-77
2022/11/03 06:21:24;;;;;;;25.05;10.88;;;8.80;99.90;;;;;;6164048;23;20017;-77
2022/11/03 06:23:53;;;;;;;19.88;9.50;;;8.80;99.90;;;;;;6155830;23;20021;-77
2022/11/03 06:26:25;;;;;;;22.83;10.63;;;8.80;99.90;;;;;;6157601;23;20017;-77
2022/11/03 06:28:52;;;;;;;27.20;13.02;;;8.90;99.90;;;;;;6158108;23;20024;-77
2022/11/03 06:31:25;;;;;;;34.05;14.52;;;8.90;99.90;;;;;;6124755;23;20574;-77
2022/11/03 06:33:52;;;;;;;27.52;13.50;;;8.90;99.90;;;;;;6101829;23;20444;-77
2022/11/03 06:36:23;;;;;;;25.92;13.50;;;9.00;99.90;;;;;;6127348;23;20033;-77
2022/11/03 06:39:00;;;;;;;40.90;17.83;;;9.20;99.90;;;;;;6126395;23;20033;-77
2022/11/03 06:41:30;;;;;;;39.40;17.98;;;9.10;99.90;;;;;;6126289;23;20018;-77
2022/11/03 06:44:01;;;;;;;37.13;16.58;;;9.10;99.90;;;;;;6152401;23;20088;-77
2022/11/03 06:46:31;;;;;;;45.33;18.88;;;9.20;99.90;;;;;;6126344;23;20092;-77
2022/11/03 06:49:00;;;;;;;33.97;16.73;;;8.80;99.90;;;;;;6127234;23;20037;-77
2022/11/03 06:51:29;;;;;;;29.20;14.18;;;9.30;99.90;;;;;;6102487;23;20039;-77
2022/11/03 06:54:00;;;;;;;31.05;14.60;;;9.10;99.90;;;;;;6151269;23;20233;-77
2022/11/03 06:56:30;;;;;;;29.42;12.50;;;8.90;99.90;;;;;;6125776;23;20026;-77
2022/11/03 06:58:57;;;;;;;32.35;13.90;;;9.40;99.90;;;;;;6127226;23;20039;-77
2022/11/03 07:01:33;;;;;;;26.98;13.93;;;9.40;99.90;;;;;;6130012;23;20022;-77
2022/11/03 07:04:21;;;;;;;31.02;13.45;;;9.40;99.90;;;;;;6158667;23;20017;-77
2022/11/03 07:06:49;;;;;;;31.30;13.02;;;9.50;99.90;;;;;;6158921;23;20021;-77
2022/11/03 07:09:22;;;;;;;38.28;15.35;;;9.90;99.90;;;;;;6134343;23;20025;-77
2022/11/03 07:11:52;;;;;;;27.75;13.32;;;9.60;99.90;;;;;;6183084;23;20036;-77
2022/11/03 07:14:26;;;;;;;30.60;13.93;;;9.60;99.90;;;;;;6158443;23;20024;-77
2022/11/03 07:16:57;;;;;;;46.70;16.08;;;9.70;99.90;;;;;;6159489;23;20898;-77
2022/11/03 07:19:32;;;;;;;34.03;13.18;;;9.70;99.90;;;;;;6159256;23;20021;-77
2022/11/03 07:22:13;;;;;;;39.20;14.60;;;9.70;99.90;;;;;;6160426;23;20112;-77
2022/11/03 07:24:43;;;;;;;32.15;13.27;;;9.70;99.90;;;;;;6163389;23;20017;-77
2022/11/03 07:27:26;;;;;;;29.88;13.05;;;9.80;99.90;;;;;;6187634;23;20060;-77
2022/11/03 07:30:04;;;;;;;29.40;11.73;;;9.80;99.90;;;;;;6159115;23;20017;-77
2022/11/03 07:32:33;;;;;;;34.75;12.82;;;9.90;99.90;;;;;;6182170;23;20017;-77
2022/11/03 07:35:11;;;;;;;32.17;13.23;;;9.90;99.90;;;;;;6159177;23;20017;-77
2022/11/03 07:37:38;;;;;;;33.08;13.73;;;9.20;99.90;;;;;;6158813;23;20017;-77
2022/11/03 07:40:15;;;;;;;31.88;13.68;;;10.20;99.90;;;;;;6158553;23;20392;-77
2022/11/03 07:42:42;;;;;;;33.08;13.60;;;10.00;99.90;;;;;;6186429;23;20055;-77
2022/11/03 07:45:34;;;;;;;47.60;15.93;;;10.10;99.90;;;;;;6136376;23;20092;-77
2022/11/03 07:48:15;;;;;;;37.83;13.57;;;10.40;99.90;;;;;;6161929;23;20021;-77
2022/11/03 07:50:42;;;;;;;42.88;16.60;;;10.30;99.90;;;;;;6164149;23;20699;-78
2022/11/03 07:53:31;;;;;;;43.30;14.90;;;10.30;99.90;;;;;;6161124;23;20376;-77
2022/11/03 07:55:59;;;;;;;39.22;13.93;;;10.60;99.90;;;;;;6163221;23;20056;-77
2022/11/03 07:58:39;;;;;;;36.67;13.10;;;10.30;99.90;;;;;;6161470;23;20075;-77
2022/11/03 08:01:25;;;;;;;36.75;13.10;;;10.40;99.90;;;;;;6140570;23;20069;-77
2022/11/03 08:28:18;;;;;;;31.85;11.40;;;10.50;99.90;;;;;;6196312;23;20047;31
2022/11/03 08:34:24;;;;;;;41.65;14.75;;;10.60;99.90;;;;;;6197860;22;20054;-79
2022/11/03 08:48:15;;;;;;;39.67;13.20;;;10.80;99.90;;;;;;6211376;22;20025;31
2022/11/03 08:54:53;;;;;;;34.03;11.18;;;10.80;99.90;;;;;;6208634;22;20263;-79
2022/11/03 09:29:08;;;;;;;45.30;14.27;;;11.00;99.90;;;;;;6226395;22;20054;-79
2022/11/03 09:34:59;;;;;;;31.67;11.30;;;11.00;99.90;;;;;;6232882;22;20031;-78
2022/11/03 09:37:36;;;;;;;30.63;10.45;;;11.00;99.90;;;;;;6214903;22;20114;31
2022/11/03 09:40:23;;;;;;;51.50;16.13;;;11.10;99.90;;;;;;6165107;22;20024;-79
2022/11/03 09:46:17;;;;;;;46.25;15.20;;;11.10;99.90;;;;;;6234793;22;20249;-78
2022/11/03 10:03:00;;;;;;;30.90;11.25;;;11.20;99.90;;;;;;6196552;22;21036;31
2022/11/03 10:05:44;;;;;;;39.10;13.05;;;11.20;99.90;;;;;;6223207;22;20024;31
2022/11/03 10:11:43;;;;;;;42.45;16.77;;;11.20;99.90;;;;;;6229856;22;20024;-78
2022/11/03 10:21:27;;;;;;;31.75;9.73;;;11.20;99.90;;;;;;6237158;22;20463;-79
2022/11/03 11:22:13;;;;;;;40.42;13.88;;;11.70;99.90;;;;;;6227652;22;20023;-79
2022/11/03 11:31:33;;;;;;;36.53;13.68;;;11.70;99.90;;;;;;6205053;23;20029;-80
2022/11/03 11:37:33;;;;;;;45.45;16.05;;;11.80;99.90;;;;;;6198774;23;20036;-77
2022/11/03 11:40:50;;;;;;;42.78;15.20;;;11.40;99.90;;;;;;6165370;22;20331;-81
2022/11/03 11:47:22;;;;;;;38.30;14.68;;;11.70;99.90;;;;;;6186703;23;20021;31
2022/11/03 12:12:34;;;;;;;44.92;16.30;;;11.90;99.90;;;;;;6227012;22;19907;31
2022/11/03 12:17:58;;;;;;;37.53;13.85;;;11.90;99.90;;;;;;6187048;23;20669;31
2022/11/03 12:30:29;;;;;;;42.28;14.20;;;11.80;99.90;;;;;;6208342;22;20017;-79
2022/11/03 12:40:47;;;;;;;72.65;35.70;;;11.80;99.90;;;;;;6201073;22;20118;31
2022/11/03 12:47:04;;;;;;;48.78;26.65;;;11.80;99.90;;;;;;6217796;22;20015;-78
2022/11/03 12:49:32;;;;;;;60.38;30.88;;;11.70;99.90;;;;;;6181150;23;20044;-78
2022/11/03 12:52:18;;;;;;;38.95;16.38;;;11.10;99.90;;;;;;6147324;23;20008;31
2022/11/03 12:58:06;;;;;;;42.80;17.10;;;11.60;99.90;;;;;;6209728;22;20023;-78
2022/11/03 13:00:39;;;;;;;37.92;15.77;;;11.60;99.90;;;;;;6201530;22;20024;-79
2022/11/03 13:03:10;;;;;;;31.73;12.57;;;11.50;99.90;;;;;;6149076;22;20024;-79
2022/11/03 13:05:58;;;;;;;38.63;17.60;;;11.50;99.90;;;;;;6144584;22;20760;-78
2022/11/03 13:08:28;;;;;;;435.58;149.57;;;11.60;99.90;;;;;;6228005;22;20013;-78
2022/11/03 13:17:59;;;;;;;82.97;35.13;;;11.50;99.90;;;;;;6199877;22;20005;-78
2022/11/03 13:20:43;;;;;;;99.80;49.22;;;11.50;99.90;;;;;;6152217;23;20088;-78
2022/11/03 13:23:33;;;;;;;62.90;30.95;;;11.50;99.90;;;;;;6122103;23;20055;31
2022/11/03 13:26:05;;;;;;;46.78;23.58;;;11.60;99.90;;;;;;6164201;23;19942;-78
2022/11/03 13:28:33;;;;;;;47.95;24.05;;;11.50;99.90;;;;;;6166902;23;20047;-79
2022/11/03 13:34:23;;;;;;;65.97;32.05;;;11.60;99.90;;;;;;6214102;22;20012;-78
2022/11/03 13:37:05;;;;;;;44.97;17.85;;;11.40;99.90;;;;;;6125267;23;20024;-78
2022/11/03 13:39:38;;;;;;;34.53;15.32;;;11.60;99.90;;;;;;6158128;23;20085;-79
2022/11/03 13:42:17;;;;;;;34.35;14.45;;;11.50;99.90;;;;;;6211427;23;20016;31
2022/11/03 13:45:17;;;;;;;35.63;15.27;;;11.50;99.90;;;;;;6153976;23;20024;31
2022/11/03 13:47:49;;;;;;;46.08;17.27;;;11.60;99.90;;;;;;6112842;23;20053;-79
2022/11/03 13:51:02;;;;;;;286.52;97.90;;;11.30;99.90;;;;;;6212533;22;20751;-77
2022/11/03 13:53:31;;;;;;;48.78;18.92;;;11.50;99.90;;;;;;6169201;23;20028;-78
2022/11/03 13:56:20;;;;;;;26.77;11.57;;;11.40;99.90;;;;;;6227758;22;20027;-78
2022/11/03 14:02:53;;;;;;;32.95;13.70;;;11.50;99.90;;;;;;6189076;22;20058;31
2022/11/03 14:12:34;;;;;;;25.30;11.57;;;11.50;99.90;;;;;;6163185;23;19916;-77
2022/11/03 14:15:12;;;;;;;31.42;15.50;;;11.40;99.90;;;;;;6219760;22;20020;-77
2022/11/03 14:17:48;;;;;;;34.13;14.77;;;11.30;99.90;;;;;;6194857;22;20028;31
2022/11/03 14:20:23;;;;;;;33.40;15.10;;;11.50;99.90;;;;;;6159043;23;20017;31
2022/11/03 14:22:54;;;;;;;27.92;12.65;;;11.30;99.90;;;;;;6197471;23;20017;-78
2022/11/03 14:25:23;;;;;;;29.47;13.60;;;11.50;99.90;;;;;;6179044;23;1156882;-79
2022/11/03 14:27:59;;;;;;;29.10;12.10;;;11.20;99.90;;;;;;6152221;23;20017;31
2022/11/03 14:30:34;;;;;;;30.17;12.52;;;11.20;99.90;;;;;;6142117;23;20131;31
2022/11/03 14:36:40;;;;;;;26.73;12.07;;;11.00;99.90;;;;;;6207893;22;20257;-77
2022/11/03 14:39:24;;;;;;;28.90;12.05;;;11.00;99.90;;;;;;6119968;23;21034;31
2022/11/03 14:59:55;;;;;;;31.30;13.38;;;10.80;99.90;;;;;;6211964;22;20076;-79
2022/11/03 15:02:40;;;;;;;34.15;13.30;;;9.80;99.90;;;;;;6207901;23;20099;-78
2022/11/03 15:05:42;;;;;;;28.45;13.13;;;10.40;99.90;;;;;;6209613;22;20044;-78
2022/11/03 15:08:18;;;;;;;26.35;11.75;;;10.60;99.90;;;;;;6229159;23;20013;-78
2022/11/03 15:11:04;;;;;;;33.50;14.13;;;10.60;99.90;;;;;;6201421;23;20031;-78
2022/11/03 15:17:10;;;;;;;33.22;15.10;;;10.60;99.90;;;;;;6119554;23;20069;-79
2022/11/03 15:19:57;;;;;;;38.28;16.02;;;10.50;99.90;;;;;;6092309;22;20028;-79
2022/11/03 15:22:32;;;;;;;;;;;10.50;99.90;;;;;;6179731;23;20403;-78
2022/11/03 15:25:40;;;;;;;36.42;14.32;;;10.40;99.90;;;;;;6208916;22;19950;-77
2022/11/03 15:40:31;;;;;;;37.22;15.23;;;10.60;99.90;;;;;;6159414;23;20112;-78
2022/11/03 15:42:59;;;;;;;36.20;13.93;;;10.30;99.90;;;;;;6152118;23;20029;-78
2022/11/03 15:45:29;;;;;;;34.40;14.00;;;10.50;99.90;;;;;;6152316;23;20010;-78
2022/11/03 15:47:56;;;;;;;41.47;15.70;;;10.50;99.90;;;;;;6127793;23;20397;-77
2022/11/03 15:50:25;;;;;;;39.47;16.38;;;10.50;99.90;;;;;;6152649;23;20010;-78
2022/11/03 15:52:53;;;;;;;44.88;16.02;;;10.50;99.90;;;;;;6152970;23;20060;-77
2022/11/03 15:55:21;;;;;;;41.17;16.75;;;10.50;99.90;;;;;;6153511;23;20049;-77
2022/11/03 15:57:49;;;;;;;45.33;17.33;;;10.50;99.90;;;;;;6152456;23;20022;-77
2022/11/03 16:00:20;;;;;;;42.35;17.67;;;10.70;99.90;;;;;;6153538;23;20041;-77
2022/11/03 16:02:48;;;;;;;45.58;18.20;;;10.50;99.90;;;;;;6154601;23;20018;-77
2022/11/03 16:05:15;;;;;;;44.65;18.52;;;10.50;99.90;;;;;;6130336;23;20018;-78
2022/11/03 16:07:49;;;;;;;49.42;18.05;;;10.50;99.90;;;;;;6153799;23;20024;-78
2022/11/03 16:10:17;;;;;;;37.95;16.67;;;10.50;99.90;;;;;;6151423;23;20052;-78
2022/11/03 16:12:44;;;;;;;42.70;16.23;;;10.50;99.90;;;;;;6129322;23;20021;-78
2022/11/03 16:15:12;;;;;;;49.17;17.10;;;10.50;99.90;;;;;;6152590;23;20029;-78
2022/11/03 16:17:39;;;;;;;44.50;16.63;;;10.60;99.90;;;;;;6151621;23;20026;-78
2022/11/03 16:20:12;;;;;;;45.95;17.35;;;10.60;99.90;;;;;;6127150;23;20030;-78
2022/11/03 16:22:39;;;;;;;40.10;17.10;;;10.60;99.90;;;;;;6147223;23;20061;-77
2022/11/03 16:25:06;;;;;;;44.55;16.58;;;10.60;99.90;;;;;;6149273;23;20036;-77
2022/11/03 16:27:40;;;;;;;40.05;17.20;;;10.60;99.90;;;;;;6148225;23;20018;-77
2022/11/03 16:30:08;;;;;;;45.30;16.45;;;10.60;99.90;;;;;;6124399;23;20022;-77
2022/11/03 16:32:35;;;;;;;55.65;20.42;;;10.60;99.90;;;;;;6147896;23;20018;-78
2022/11/03 16:35:03;;;;;;;49.63;19.10;;;10.60;99.90;;;;;;6145979;23;20021;-78
2022/11/03 16:37:30;;;;;;;49.78;19.27;;;10.60;99.90;;;;;;6122122;23;20746;-78
2022/11/03 16:39:57;;;;;;;44.35;17.40;;;10.70;99.90;;;;;;6143889;23;20037;-78
2022/11/03 16:42:25;;;;;;;49.33;19.60;;;10.60;99.90;;;;;;6122632;23;20025;-78
2022/11/03 16:44:54;;;;;;;58.63;21.05;;;10.70;99.90;;;;;;6118987;23;20498;-78
2022/11/03 16:47:21;;;;;;;54.10;20.73;;;10.60;99.90;;;;;;6146694;23;20112;-78
2022/11/03 16:49:50;;;;;;;55.45;20.05;;;10.50;99.90;;;;;;6148846;23;20013;-77
2022/11/03 16:52:19;;;;;;;56.67;21.02;;;10.60;99.90;;;;;;6147220;23;20476;-77
2022/11/03 16:54:47;;;;;;;56.47;21.33;;;10.60;99.90;;;;;;6147817;23;20022;-78
2022/11/03 16:57:14;;;;;;;60.17;21.88;;;10.60;99.90;;;;;;6122233;23;20021;-78
2022/11/03 16:59:41;;;;;;;63.65;23.50;;;10.60;99.90;;;;;;6168378;23;20317;-78
2022/11/03 17:02:08;;;;;;;56.65;20.33;;;9.70;99.90;;;;;;6143083;23;20021;-78
2022/11/03 17:04:42;;;;;;;58.10;20.65;;;10.60;99.90;;;;;;6149699;23;20330;-78
2022/11/03 17:07:10;;;;;;;46.28;19.23;;;10.60;99.90;;;;;;6152475;23;20014;-78
2022/11/03 17:09:37;;;;;;;54.30;20.38;;;10.60;99.90;;;;;;6127410;23;20032;-78
2022/11/03 17:12:05;;;;;;;52.85;21.15;;;10.50;99.90;;;;;;6129088;23;20104;-78
2022/11/03 17:14:32;;;;;;;62.03;23.42;;;11.40;99.90;;;;;;6152665;23;20121;-78
2022/11/03 17:17:00;;;;;;;56.83;22.88;;;10.50;99.90;;;;;;6129017;23;20021;-77
2022/11/03 17:19:28;;;;;;;63.88;24.25;;;10.50;99.90;;;;;;6153799;23;20673;-77
2022/11/03 17:21:56;;;;;;;69.15;27.70;;;10.50;99.90;;;;;;6126489;23;20045;-77
2022/11/03 17:24:23;;;;;;;80.32;32.25;;;10.40;99.90;;;;;;6153605;23;20041;-77
2022/11/03 17:26:58;;;;;;;74.65;31.83;;;10.40;99.90;;;;;;6128651;23;20025;-77
2022/11/03 17:29:39;;;;;;;99.25;37.60;;;10.40;99.90;;;;;;6152490;23;20021;-77
2022/11/03 17:32:12;;;;;;;111.03;44.50;;;10.40;99.90;;;;;;6153342;23;20045;-77
2022/11/03 17:34:40;;;;;;;96.07;38.45;;;10.40;99.90;;;;;;6151465;23;20512;-77
2022/11/03 17:37:08;;;;;;;78.20;31.25;;;10.50;99.90;;;;;;6153883;23;20017;-77
2022/11/03 17:39:37;;;;;;;77.10;28.95;;;10.40;99.90;;;;;;6126621;23;20013;-77
2022/11/03 17:42:17;;;;;;;77.80;32.97;;;10.40;99.90;;;;;;6128401;23;20017;-77
2022/11/03 17:44:46;;;;;;;81.90;36.47;;;10.40;99.90;;;;;;6151770;23;20437;-77
2022/11/03 17:47:14;;;;;;;78.40;32.50;;;10.50;99.90;;;;;;6176797;23;20014;-78
2022/11/03 17:49:43;;;;;;;74.93;31.02;;;10.50;99.90;;;;;;6153445;23;20626;-78
2022/11/03 17:52:14;;;;;;;75.18;29.17;;;10.40;99.90;;;;;;6153061;23;20018;-78
2022/11/03 17:54:42;;;;;;;66.07;28.02;;;9.60;99.90;;;;;;6128178;23;20028;-78
2022/11/03 17:57:18;;;;;;;67.47;26.65;;;10.50;99.90;;;;;;6152262;23;20018;-78
2022/11/03 17:59:51;;;;;;;73.85;27.45;;;10.50;99.90;;;;;;6124756;23;20463;-78
2022/11/03 18:02:22;;;;;;;73.68;30.20;;;10.50;99.90;;;;;;6150512;23;20441;-78
2022/11/03 18:04:56;;;;;;;73.20;29.85;;;10.70;99.90;;;;;;6146798;23;20017;-78
2022/11/03 18:07:27;;;;;;;67.53;28.33;;;10.60;99.90;;;;;;6126615;23;20018;-78
2022/11/03 18:09:55;;;;;;;66.75;25.27;;;10.60;99.90;;;;;;6150861;23;20088;-78
2022/11/03 18:15:22;;;;;;;57.47;21.55;;;10.50;99.90;;;;;;6149722;23;20017;-78